sensor_id;sensor_type;location;lat;lon;timestamp;temperature;humidity
2008;DHT22;47741;52.306;8.904;2022-11-04T00:01:04;13.90;99.90
2008;DHT22;47741;52.306;8.904;2022-11-04T00:03:50;13.80;99.90
2008;DHT22;47741;52.306;8.904;2022-11-04T00:06:39;13.80;99.90
2008;DHT22;47741;52.306;8.904;2022-11-04T00:09:26;13.80;99.90
2008;DHT22;47741;52.306;8.904;2022-11-04T00:12:13;13.80;99.90
2008;DHT22;47741;52.306;8.904;2022-11-04T00:15:11;13.80;99.90
2008;DHT22;47741;52.306;8.904;2022-11-04T00:18:18;14.00;99.90
2008;DHT22;47741;52.306;8.904;2022-11-04T00:21:09;14.00;99.90
2008;DHT22;47741;52.306;8.904;2022-11-04T00:24:14;13.90;99.90
2008;DHT22;47741;52.306;8.904;2022-11-04T00:27:19;14.10;99.90
2008;DHT22;47741;52.306;8.904;2022-11-04T00:30:24;14.00;99.90
2008;DHT22;47741;52.306;8.904;2022-11-04T00:33:10;14.00;99.90
2008;DHT22;47741;52.306;8.904;2022-11-04T00:36:11;14.00;99.90
2008;DHT22;47741;52.306;8.904;2022-11-04T00:38:57;13.80;99.90
2008;DHT22;47741;52.306;8.904;2022-11-04T00:41:43;13.80;99.90
2008;DHT22;47741;52.306;8.904;2022-11-04T00:44:31;13.90;99.90
2008;DHT22;47741;52.306;8.904;2022-11-04T00:47:17;14.00;99.90
2008;DHT22;47741;52.306;8.904;2022-11-04T00:50:03;13.90;99.90
2008;DHT22;47741;52.306;8.904;2022-11-04T00:52:49;13.80;99.90
2008;DHT22;47741;52.306;8.904;2022-11-04T00:55:35;13.90;99.90
2008;DHT22;47741;52.306;8.904;2022-11-04T00:58:21;14.00;99.90
2008;DHT22;47741;52.306;8.904;2022-11-04T01:01:11;13.90;99.90
2008;DHT22;47741;52.306;8.904;2022-11-04T01:04:02;13.90;99.90
2008;DHT22;47741;52.306;8.904;2022-11-04T01:06:48;13.90;99.90
2008;DHT22;47741;52.306;8.904;2022-11-04T01:09:34;13.80;99.90
2008;DHT22;47741;52.306;8.904;2022-11-04T01:12:22;13.90;99.90
2008;DHT22;47741;52.306;8.904;2022-11-04T01:15:08;14.10;99.90
2008;DHT22;47741;52.306;8.904;2022-11-04T01:17:56;14.20;99.90
2008;DHT22;47741;52.306;8.904;2022-11-04T01:20:42;14.00;99.90
2008;DHT22;47741;52.306;8.904;2022-11-04T01:23:31;13.80;99.90
2008;DHT22;47741;52.306;8.904;2022-11-04T01:26:19;13.60;99.90
2008;DHT22;47741;52.306;8.904;2022-11-04T01:29:07;13.60;99.90
2008;DHT22;47741;52.306;8.904;2022-11-04T01:31:52;13.90;99.90
2008;DHT22;47741;52.306;8.904;2022-11-04T01:34:38;13.70;99.90
2008;DHT22;47741;52.306;8.904;2022-11-04T01:37:29;13.80;99.90
2008;DHT22;47741;52.306;8.904;2022-11-04T01:40:15;13.70;99.90
2008;DHT22;47741;52.306;8.904;2022-11-04T01:43:01;13.80;99.90
2008;DHT22;47741;52.306;8.904;2022-11-04T01:45:48;13.90;99.90
2008;DHT22;47741;52.306;8.904;2022-11-04T01:48:37;14.10;99.90
2008;DHT22;47741;52.306;8.904;2022-11-04T01:51:25;14.00;99.90
2008;DHT22;47741;52.306;8.904;2022-11-04T01:54:15;14.00;99.90
2008;DHT22;47741;52.306;8.904;2022-11-04T01:57:02;13.90;99.90
2008;DHT22;47741;52.306;8.904;2022-11-04T01:59:50;14.00;99.90
2008;DHT22;47741;52.306;8.904;2022-11-04T02:02:39;13.70;99.90
2008;DHT22;47741;52.306;8.904;2022-11-04T02:05:31;13.70;99.90
2008;DHT22;47741;52.306;8.904;2022-11-04T03:21:52;12.20;99.90
2008;DHT22;47741;52.306;8.904;2022-11-04T03:24:45;11.70;99.90
2008;DHT22;47741;52.306;8.904;2022-11-04T04:37:10;11.60;99.90
2008;DHT22;47741;52.306;8.904;2022-11-04T04:40:01;11.90;99.90
2008;DHT22;47741;52.306;8.904;2022-11-04T04:43:08;11.80;99.90
2008;DHT22;47741;52.306;8.904;2022-11-04T04:46:17;11.90;99.90
2008;DHT22;47741;52.306;8.904;2022-11-04T04:49:07;11.90;99.90
2008;DHT22;47741;52.306;8.904;2022-11-04T04:51:53;12.00;99.90
2008;DHT22;47741;52.306;8.904;2022-11-04T04:54:39;12.00;99.90
2008;DHT22;47741;52.306;8.904;2022-11-04T05:58:43;11.60;99.90
2008;DHT22;47741;52.306;8.904;2022-11-04T06:04:15;11.90;99.90
2008;DHT22;47741;52.306;8.904;2022-11-04T06:15:24;11.40;99.90
2008;DHT22;47741;52.306;8.904;2022-11-04T06:52:12;11.20;99.90
2008;DHT22;47741;52.306;8.904;2022-11-04T07:28:24;11.90;99.90
2008;DHT22;47741;52.306;8.904;2022-11-04T07:31:11;11.70;99.90
2008;DHT22;47741;52.306;8.904;2022-11-04T07:33:57;11.70;99.90
2008;DHT22;47741;52.306;8.904;2022-11-04T07:36:43;11.50;99.90
2008;DHT22;47741;52.306;8.904;2022-11-04T07:39:29;11.40;99.90
2008;DHT22;47741;52.306;8.904;2022-11-04T07:42:17;11.50;99.90
2008;DHT22;47741;52.306;8.904;2022-11-04T07:45:03;11.60;99.90
2008;DHT22;47741;52.306;8.904;2022-11-04T07:47:49;11.60;99.90
2008;DHT22;47741;52.306;8.904;2022-11-04T07:50:37;11.90;99.90
2008;DHT22;47741;52.306;8.904;2022-11-04T07:53:25;11.60;99.90
2008;DHT22;47741;52.306;8.904;2022-11-04T07:56:14;11.70;99.90
2008;DHT22;47741;52.306;8.904;2022-11-04T07:59:00;11.80;99.90
2008;DHT22;47741;52.306;8.904;2022-11-04T08:01:46;11.80;99.90
2008;DHT22;47741;52.306;8.904;2022-11-04T08:04:32;11.80;99.90
2008;DHT22;47741;52.306;8.904;2022-11-04T08:07:18;11.90;99.90
2008;DHT22;47741;52.306;8.904;2022-11-04T08:10:07;12.00;99.90
2008;DHT22;47741;52.306;8.904;2022-11-04T08:12:54;12.00;99.90
2008;DHT22;47741;52.306;8.904;2022-11-04T08:15:40;11.80;99.90
2008;DHT22;47741;52.306;8.904;2022-11-04T08:18:29;12.00;99.90
2008;DHT22;47741;52.306;8.904;2022-11-04T08:21:16;12.20;99.90
2008;DHT22;47741;52.306;8.904;2022-11-04T08:24:02;12.30;99.90
2008;DHT22;47741;52.306;8.904;2022-11-04T08:26:48;12.50;99.90
2008;DHT22;47741;52.306;8.904;2022-11-04T08:29:37;12.80;99.90
2008;DHT22;47741;52.306;8.904;2022-11-04T08:32:23;12.80;99.90
2008;DHT22;47741;52.306;8.904;2022-11-04T08:35:09;12.60;99.90
2008;DHT22;47741;52.306;8.904;2022-11-04T08:37:55;12.80;99.90
2008;DHT22;47741;52.306;8.904;2022-11-04T08:40:41;12.70;99.90
2008;DHT22;47741;52.306;8.904;2022-11-04T08:43:27;13.00;99.90
2008;DHT22;47741;52.306;8.904;2022-11-04T08:46:13;13.40;99.90
2008;DHT22;47741;52.306;8.904;2022-11-04T08:49:02;12.90;99.90
2008;DHT22;47741;52.306;8.904;2022-11-04T08:51:49;12.90;99.90
2008;DHT22;47741;52.306;8.904;2022-11-04T08:54:40;12.80;99.90
2008;DHT22;47741;52.306;8.904;2022-11-04T08:57:28;12.90;99.90
2008;DHT22;47741;52.306;8.904;2022-11-04T09:00:16;12.70;99.90
2008;DHT22;47741;52.306;8.904;2022-11-04T09:03:03;13.10;99.90
2008;DHT22;47741;52.306;8.904;2022-11-04T09:05:49;13.10;99.90
2008;DHT22;47741;52.306;8.904;2022-11-04T09:08:35;13.00;99.90
2008;DHT22;47741;52.306;8.904;2022-11-04T09:11:23;13.10;99.90
2008;DHT22;47741;52.306;8.904;2022-11-04T09:14:10;12.90;99.90
2008;DHT22;47741;52.306;8.904;2022-11-04T09:16:56;13.30;99.90
2008;DHT22;47741;52.306;8.904;2022-11-04T09:19:42;13.60;99.90
2008;DHT22;47741;52.306;8.904;2022-11-04T09:22:28;13.40;99.90
2008;DHT22;47741;52.306;8.904;2022-11-04T09:25:16;13.50;99.90
2008;DHT22;47741;52.306;8.904;2022-11-04T09:28:02;13.10;99.90
2008;DHT22;47741;52.306;8.904;2022-11-04T09:30:49;13.10;99.90
2008;DHT22;47741;52.306;8.904;2022-11-04T09:33:35;13.50;99.90
2008;DHT22;47741;52.306;8.904;2022-11-04T09:36:23;13.70;99.90
2008;DHT22;47741;52.306;8.904;2022-11-04T09:39:10;13.90;99.90
2008;DHT22;47741;52.306;8.904;2022-11-04T09:41:59;13.60;99.90
2008;DHT22;47741;52.306;8.904;2022-11-04T09:45:01;13.80;99.90
2008;DHT22;47741;52.306;8.904;2022-11-04T09:47:48;13.60;99.90
2008;DHT22;47741;52.306;8.904;2022-11-04T09:50:40;13.90;99.90
2008;DHT22;47741;52.306;8.904;2022-11-04T09:56:37;13.50;99.90
2008;DHT22;47741;52.306;8.904;2022-11-04T09:59:27;13.40;99.90
2008;DHT22;47741;52.306;8.904;2022-11-04T10:05:37;13.70;99.90
2008;DHT22;47741;52.306;8.904;2022-11-04T10:14:41;14.00;99.90
2008;DHT22;47741;52.306;8.904;2022-11-04T10:20:47;14.10;99.90
2008;DHT22;47741;52.306;8.904;2022-11-04T10:26:30;14.10;99.90
2008;DHT22;47741;52.306;8.904;2022-11-04T10:32:20;14.60;99.90
2008;DHT22;47741;52.306;8.904;2022-11-04T10:38:12;14.50;99.90
2008;DHT22;47741;52.306;8.904;2022-11-04T10:41:00;14.40;99.90
2008;DHT22;47741;52.306;8.904;2022-11-04T10:43:46;14.40;99.90
2008;DHT22;47741;52.306;8.904;2022-11-04T10:46:36;14.20;99.90
2008;DHT22;47741;52.306;8.904;2022-11-04T10:52:24;14.60;99.90
2008;DHT22;47741;52.306;8.904;2022-11-04T10:58:27;14.90;99.90
2008;DHT22;47741;52.306;8.904;2022-11-04T11:04:29;14.40;99.90
2008;DHT22;47741;52.306;8.904;2022-11-04T11:07:15;14.70;99.90
2008;DHT22;47741;52.306;8.904;2022-11-04T11:10:14;14.90;99.90
2008;DHT22;47741;52.306;8.904;2022-11-04T11:13:05;15.00;99.90
2008;DHT22;47741;52.306;8.904;2022-11-04T11:16:08;15.20;99.90
2008;DHT22;47741;52.306;8.904;2022-11-04T11:19:06;15.50;99.90
2008;DHT22;47741;52.306;8.904;2022-11-04T11:21:57;15.80;99.90
2008;DHT22;47741;52.306;8.904;2022-11-04T11:24:46;16.00;99.90
2008;DHT22;47741;52.306;8.904;2022-11-04T11:27:32;15.60;99.90
2008;DHT22;47741;52.306;8.904;2022-11-04T11:30:18;16.00;99.90
2008;DHT22;47741;52.306;8.904;2022-11-04T11:33:12;15.80;99.90
2008;DHT22;47741;52.306;8.904;2022-11-04T11:47:34;15.60;99.90
2008;DHT22;47741;52.306;8.904;2022-11-04T11:50:27;15.80;99.90
2008;DHT22;47741;52.306;8.904;2022-11-04T11:53:20;15.70;99.90
2008;DHT22;47741;52.306;8.904;2022-11-04T11:56:22;15.60;99.90
2008;DHT22;47741;52.306;8.904;2022-11-04T11:59:14;15.40;99.90
2008;DHT22;47741;52.306;8.904;2022-11-04T12:05:25;15.40;99.90
2008;DHT22;47741;52.306;8.904;2022-11-04T12:45:03;14.60;99.90
2008;DHT22;47741;52.306;8.904;2022-11-04T12:57:49;15.00;99.90
2008;DHT22;47741;52.306;8.904;2022-11-04T13:00:41;15.10;99.90
2008;DHT22;47741;52.306;8.904;2022-11-04T13:03:35;15.00;99.90
2008;DHT22;47741;52.306;8.904;2022-11-04T13:09:43;15.00;99.90
2008;DHT22;47741;52.306;8.904;2022-11-04T13:12:35;14.90;99.90
2008;DHT22;47741;52.306;8.904;2022-11-04T13:15:23;14.60;99.90
2008;DHT22;47741;52.306;8.904;2022-11-04T13:18:18;14.60;99.90
2008;DHT22;47741;52.306;8.904;2022-11-04T13:21:06;14.30;99.90
2008;DHT22;47741;52.306;8.904;2022-11-04T13:24:00;14.00;99.90
2008;DHT22;47741;52.306;8.904;2022-11-04T13:26:51;14.10;99.90
2008;DHT22;47741;52.306;8.904;2022-11-04T13:29:37;14.10;99.90
2008;DHT22;47741;52.306;8.904;2022-11-04T13:32:27;14.30;99.90
2008;DHT22;47741;52.306;8.904;2022-11-04T13:38:32;15.10;99.90
2008;DHT22;47741;52.306;8.904;2022-11-04T13:44:26;15.60;99.90
2008;DHT22;47741;52.306;8.904;2022-11-04T13:47:36;15.80;99.90
2008;DHT22;47741;52.306;8.904;2022-11-04T13:50:28;15.80;99.90
2008;DHT22;47741;52.306;8.904;2022-11-04T13:53:15;15.50;99.90
2008;DHT22;47741;52.306;8.904;2022-11-04T13:56:01;15.40;99.90
2008;DHT22;47741;52.306;8.904;2022-11-04T13:58:50;15.50;99.90
2008;DHT22;47741;52.306;8.904;2022-11-04T14:01:39;15.00;99.90
2008;DHT22;47741;52.306;8.904;2022-11-04T14:04:27;14.80;99.90
2008;DHT22;47741;52.306;8.904;2022-11-04T14:07:15;14.90;99.90
2008;DHT22;47741;52.306;8.904;2022-11-04T14:10:02;14.80;99.90
2008;DHT22;47741;52.306;8.904;2022-11-04T14:12:49;15.00;99.90
2008;DHT22;47741;52.306;8.904;2022-11-04T14:18:47;15.20;99.90
2008;DHT22;47741;52.306;8.904;2022-11-04T14:21:39;15.40;99.90
2008;DHT22;47741;52.306;8.904;2022-11-04T14:24:56;15.40;99.90
2008;DHT22;47741;52.306;8.904;2022-11-04T14:27:48;14.90;99.90
2008;DHT22;47741;52.306;8.904;2022-11-04T14:36:26;15.10;99.90
2008;DHT22;47741;52.306;8.904;2022-11-04T14:39:20;15.40;99.90
2008;DHT22;47741;52.306;8.904;2022-11-04T14:42:11;15.10;99.90
2008;DHT22;47741;52.306;8.904;2022-11-04T14:44:58;15.10;99.90
2008;DHT22;47741;52.306;8.904;2022-11-04T14:47:48;15.10;99.90
2008;DHT22;47741;52.306;8.904;2022-11-04T14:50:37;15.00;99.90
2008;DHT22;47741;52.306;8.904;2022-11-04T14:53:28;14.90;99.90
2008;DHT22;47741;52.306;8.904;2022-11-04T14:56:20;14.90;99.90
2008;DHT22;47741;52.306;8.904;2022-11-04T14:59:06;14.80;99.90
2008;DHT22;47741;52.306;8.904;2022-11-04T15:01:53;14.60;99.90
2008;DHT22;47741;52.306;8.904;2022-11-04T15:04:41;14.10;99.90
2008;DHT22;47741;52.306;8.904;2022-11-04T15:10:20;13.80;99.90
2008;DHT22;47741;52.306;8.904;2022-11-04T15:13:09;13.80;99.90
2008;DHT22;47741;52.306;8.904;2022-11-04T15:15:55;13.90;99.90
2008;DHT22;47741;52.306;8.904;2022-11-04T15:18:42;14.00;99.90
2008;DHT22;47741;52.306;8.904;2022-11-04T15:21:28;13.90;99.90
2008;DHT22;47741;52.306;8.904;2022-11-04T15:24:14;14.00;99.90
2008;DHT22;47741;52.306;8.904;2022-11-04T15:27:03;13.90;99.90
2008;DHT22;47741;52.306;8.904;2022-11-04T15:29:57;14.00;99.90
2008;DHT22;47741;52.306;8.904;2022-11-04T15:36:03;13.70;99.90
2008;DHT22;47741;52.306;8.904;2022-11-04T15:38:57;13.60;99.90
2008;DHT22;47741;52.306;8.904;2022-11-04T15:41:48;13.40;99.90
2008;DHT22;47741;52.306;8.904;2022-11-04T15:44:53;13.30;99.90
2008;DHT22;47741;52.306;8.904;2022-11-04T15:47:45;13.20;99.90
2008;DHT22;47741;52.306;8.904;2022-11-04T15:50:31;13.30;99.90
2008;DHT22;47741;52.306;8.904;2022-11-04T15:53:17;13.20;99.90
2008;DHT22;47741;52.306;8.904;2022-11-04T15:56:04;13.00;99.90
2008;DHT22;47741;52.306;8.904;2022-11-04T15:58:53;13.00;99.90
2008;DHT22;47741;52.306;8.904;2022-11-04T16:01:43;13.00;99.90
2008;DHT22;47741;52.306;8.904;2022-11-04T16:04:30;13.00;99.90
2008;DHT22;47741;52.306;8.904;2022-11-04T16:10:19;12.60;99.90
2008;DHT22;47741;52.306;8.904;2022-11-04T16:13:21;12.70;99.90
2008;DHT22;47741;52.306;8.904;2022-11-04T16:16:21;12.50;99.90
2008;DHT22;47741;52.306;8.904;2022-11-04T16:19:11;12.50;99.90
2008;DHT22;47741;52.306;8.904;2022-11-04T16:22:05;12.40;99.90
2008;DHT22;47741;52.306;8.904;2022-11-04T16:24:55;12.50;99.90
2008;DHT22;47741;52.306;8.904;2022-11-04T16:27:43;12.40;99.90
2008;DHT22;47741;52.306;8.904;2022-11-04T16:30:32;12.30;99.90
2008;DHT22;47741;52.306;8.904;2022-11-04T16:33:18;12.10;99.90
2008;DHT22;47741;52.306;8.904;2022-11-04T16:36:08;12.00;99.90
2008;DHT22;47741;52.306;8.904;2022-11-04T16:39:08;11.90;99.90
2008;DHT22;47741;52.306;8.904;2022-11-04T16:41:54;11.90;99.90
2008;DHT22;47741;52.306;8.904;2022-11-04T16:44:50;11.90;99.90
2008;DHT22;47741;52.306;8.904;2022-11-04T16:47:38;11.80;99.90
2008;DHT22;47741;52.306;8.904;2022-11-04T16:50:25;11.80;99.90
2008;DHT22;47741;52.306;8.904;2022-11-04T16:53:13;11.90;99.90
2008;DHT22;47741;52.306;8.904;2022-11-04T16:55:59;11.70;99.90
2008;DHT22;47741;52.306;8.904;2022-11-04T16:58:45;11.80;99.90
2008;DHT22;47741;52.306;8.904;2022-11-04T17:01:35;11.80;99.90
2008;DHT22;47741;52.306;8.904;2022-11-04T17:04:24;11.70;99.90
2008;DHT22;47741;52.306;8.904;2022-11-04T17:07:10;11.80;99.90
2008;DHT22;47741;52.306;8.904;2022-11-04T17:09:56;11.50;99.90
2008;DHT22;47741;52.306;8.904;2022-11-04T17:12:42;11.60;99.90
2008;DHT22;47741;52.306;8.904;2022-11-04T17:15:28;11.40;99.90
2008;DHT22;47741;52.306;8.904;2022-11-04T17:18:15;11.30;99.90
2008;DHT22;47741;52.306;8.904;2022-11-04T17:21:06;11.40;99.90
2008;DHT22;47741;52.306;8.904;2022-11-04T17:23:53;11.40;99.90
2008;DHT22;47741;52.306;8.904;2022-11-04T17:26:44;11.20;99.90
2008;DHT22;47741;52.306;8.904;2022-11-04T17:29:30;11.10;99.90
2008;DHT22;47741;52.306;8.904;2022-11-04T17:32:16;11.20;99.90
2008;DHT22;47741;52.306;8.904;2022-11-04T17:35:02;11.30;99.90
2008;DHT22;47741;52.306;8.904;2022-11-04T17:37:51;11.10;99.90
2008;DHT22;47741;52.306;8.904;2022-11-04T17:40:38;11.00;99.90
2008;DHT22;47741;52.306;8.904;2022-11-04T17:43:43;10.90;99.90
2008;DHT22;47741;52.306;8.904;2022-11-04T17:46:47;10.60;99.90
2008;DHT22;47741;52.306;8.904;2022-11-04T17:49:34;10.70;99.90
2008;DHT22;47741;52.306;8.904;2022-11-04T17:52:21;10.60;99.90
2008;DHT22;47741;52.306;8.904;2022-11-04T17:55:08;10.50;99.90
2008;DHT22;47741;52.306;8.904;2022-11-04T17:57:54;10.40;99.90
2008;DHT22;47741;52.306;8.904;2022-11-04T18:00:41;10.30;99.90
2008;DHT22;47741;52.306;8.904;2022-11-04T18:03:27;10.20;99.90
2008;DHT22;47741;52.306;8.904;2022-11-04T18:06:16;10.20;99.90
2008;DHT22;47741;52.306;8.904;2022-11-04T18:09:02;10.30;99.90
2008;DHT22;47741;52.306;8.904;2022-11-04T18:11:51;10.20;99.90
2008;DHT22;47741;52.306;8.904;2022-11-04T18:14:56;10.20;99.90
2008;DHT22;47741;52.306;8.904;2022-11-04T18:17:42;10.10;99.90
2008;DHT22;47741;52.306;8.904;2022-11-04T18:20:29;10.00;99.90
2008;DHT22;47741;52.306;8.904;2022-11-04T18:23:18;10.00;99.90
2008;DHT22;47741;52.306;8.904;2022-11-04T18:26:11;10.10;99.90
2008;DHT22;47741;52.306;8.904;2022-11-04T18:28:57;10.00;99.90
2008;DHT22;47741;52.306;8.904;2022-11-04T18:31:44;10.00;99.90
2008;DHT22;47741;52.306;8.904;2022-11-04T18:34:31;10.00;99.90
2008;DHT22;47741;52.306;8.904;2022-11-04T18:37:17;10.20;99.90
2008;DHT22;47741;52.306;8.904;2022-11-04T18:40:04;10.30;99.90
2008;DHT22;47741;52.306;8.904;2022-11-04T18:42:55;10.30;99.90
2008;DHT22;47741;52.306;8.904;2022-11-04T18:45:41;10.30;99.90
2008;DHT22;47741;52.306;8.904;2022-11-04T18:48:27;10.40;99.90
2008;DHT22;47741;52.306;8.904;2022-11-04T18:51:13;10.40;99.90
2008;DHT22;47741;52.306;8.904;2022-11-04T18:54:01;10.50;99.90
2008;DHT22;47741;52.306;8.904;2022-11-04T18:56:48;10.40;99.90
2008;DHT22;47741;52.306;8.904;2022-11-04T18:59:34;10.60;99.90
2008;DHT22;47741;52.306;8.904;2022-11-04T19:02:20;10.60;99.90
2008;DHT22;47741;52.306;8.904;2022-11-04T19:05:08;10.60;99.90
2008;DHT22;47741;52.306;8.904;2022-11-04T19:07:54;10.70;99.90
2008;DHT22;47741;52.306;8.904;2022-11-04T19:10:40;10.60;99.90
2008;DHT22;47741;52.306;8.904;2022-11-04T19:13:26;10.90;99.90
2008;DHT22;47741;52.306;8.904;2022-11-04T19:16:12;10.80;99.90
2008;DHT22;47741;52.306;8.904;2022-11-04T19:18:59;10.80;99.90
2008;DHT22;47741;52.306;8.904;2022-11-04T19:21:46;10.80;99.90
2008;DHT22;47741;52.306;8.904;2022-11-04T19:24:34;10.70;99.90
2008;DHT22;47741;52.306;8.904;2022-11-04T19:27:20;10.70;99.90
2008;DHT22;47741;52.306;8.904;2022-11-04T19:30:07;10.90;99.90
2008;DHT22;47741;52.306;8.904;2022-11-04T19:32:54;11.00;99.90
2008;DHT22;47741;52.306;8.904;2022-11-04T19:35:44;11.00;99.90
2008;DHT22;47741;52.306;8.904;2022-11-04T19:38:30;10.90;99.90
2008;DHT22;47741;52.306;8.904;2022-11-04T19:41:16;10.90;99.90
2008;DHT22;47741;52.306;8.904;2022-11-04T19:44:22;11.00;99.90
2008;DHT22;47741;52.306;8.904;2022-11-04T19:47:08;11.10;99.90
2008;DHT22;47741;52.306;8.904;2022-11-04T19:49:54;11.00;99.90
2008;DHT22;47741;52.306;8.904;2022-11-04T19:52:42;10.90;99.90
2008;DHT22;47741;52.306;8.904;2022-11-04T19:55:30;10.80;99.90
2008;DHT22;47741;52.306;8.904;2022-11-04T19:58:17;10.60;99.90
2008;DHT22;47741;52.306;8.904;2022-11-04T20:01:04;10.40;99.90
2008;DHT22;47741;52.306;8.904;2022-11-04T20:03:54;10.30;99.90
2008;DHT22;47741;52.306;8.904;2022-11-04T20:06:40;10.70;99.90
2008;DHT22;47741;52.306;8.904;2022-11-04T20:09:27;10.20;99.90
2008;DHT22;47741;52.306;8.904;2022-11-04T20:12:15;9.80;99.90
2008;DHT22;47741;52.306;8.904;2022-11-04T20:15:20;10.10;99.90
2008;DHT22;47741;52.306;8.904;2022-11-04T20:18:06;10.10;99.90
2008;DHT22;47741;52.306;8.904;2022-11-04T20:21:03;10.10;99.90
2008;DHT22;47741;52.306;8.904;2022-11-04T20:23:53;10.10;99.90
2008;DHT22;47741;52.306;8.904;2022-11-04T20:26:43;10.00;99.90
2008;DHT22;47741;52.306;8.904;2022-11-04T20:29:32;9.80;99.90
2008;DHT22;47741;52.306;8.904;2022-11-04T20:32:19;9.90;99.90
2008;DHT22;47741;52.306;8.904;2022-11-04T20:35:05;9.70;99.90
2008;DHT22;47741;52.306;8.904;2022-11-04T20:37:56;9.70;99.90
2008;DHT22;47741;52.306;8.904;2022-11-04T20:40:49;9.70;99.90
2008;DHT22;47741;52.306;8.904;2022-11-04T20:43:44;9.60;99.90
2008;DHT22;47741;52.306;8.904;2022-11-04T20:46:37;9.70;99.90
2008;DHT22;47741;52.306;8.904;2022-11-04T20:49:27;9.60;99.90
2008;DHT22;47741;52.306;8.904;2022-11-04T20:52:18;9.60;99.90
2008;DHT22;47741;52.306;8.904;2022-11-04T20:55:07;9.50;99.90
2008;DHT22;47741;52.306;8.904;2022-11-04T20:57:57;9.40;99.90
2008;DHT22;47741;52.306;8.904;2022-11-04T21:00:49;9.60;99.90
2008;DHT22;47741;52.306;8.904;2022-11-04T21:03:42;9.60;99.90
2008;DHT22;47741;52.306;8.904;2022-11-04T21:06:34;9.50;99.90
2008;DHT22;47741;52.306;8.904;2022-11-04T21:09:32;9.50;99.90
2008;DHT22;47741;52.306;8.904;2022-11-04T21:12:18;9.40;99.90
2008;DHT22;47741;52.306;8.904;2022-11-04T21:15:08;9.40;99.90
2008;DHT22;47741;52.306;8.904;2022-11-04T21:18:23;9.30;99.90
2008;DHT22;47741;52.306;8.904;2022-11-04T21:21:15;9.30;99.90
2008;DHT22;47741;52.306;8.904;2022-11-04T21:24:03;9.40;99.90
2008;DHT22;47741;52.306;8.904;2022-11-04T21:26:53;9.40;99.90
2008;DHT22;47741;52.306;8.904;2022-11-04T21:29:57;9.30;99.90
2008;DHT22;47741;52.306;8.904;2022-11-04T21:32:48;9.20;99.90
2008;DHT22;47741;52.306;8.904;2022-11-04T21:35:40;9.30;99.90
2008;DHT22;47741;52.306;8.904;2022-11-04T21:38:30;9.30;99.90
2008;DHT22;47741;52.306;8.904;2022-11-04T21:41:19;9.50;99.90
2008;DHT22;47741;52.306;8.904;2022-11-04T21:44:11;9.50;99.90
2008;DHT22;47741;52.306;8.904;2022-11-04T21:47:00;9.40;99.90
2008;DHT22;47741;52.306;8.904;2022-11-04T21:49:46;9.40;99.90
2008;DHT22;47741;52.306;8.904;2022-11-04T21:52:35;9.40;99.90
2008;DHT22;47741;52.306;8.904;2022-11-04T21:55:26;9.40;99.90
2008;DHT22;47741;52.306;8.904;2022-11-04T21:58:12;9.40;99.90
2008;DHT22;47741;52.306;8.904;2022-11-04T22:00:59;9.40;99.90
2008;DHT22;47741;52.306;8.904;2022-11-04T22:03:52;9.20;99.90
2008;DHT22;47741;52.306;8.904;2022-11-04T22:06:43;9.20;99.90
2008;DHT22;47741;52.306;8.904;2022-11-04T22:09:34;9.30;99.90
2008;DHT22;47741;52.306;8.904;2022-11-04T22:12:20;9.40;99.90
2008;DHT22;47741;52.306;8.904;2022-11-04T22:15:08;9.50;99.90
2008;DHT22;47741;52.306;8.904;2022-11-04T22:17:57;9.60;99.90
2008;DHT22;47741;52.306;8.904;2022-11-04T22:20:43;9.70;99.90
2008;DHT22;47741;52.306;8.904;2022-11-04T22:23:34;9.30;99.90
2008;DHT22;47741;52.306;8.904;2022-11-04T22:26:24;9.40;99.90
2008;DHT22;47741;52.306;8.904;2022-11-04T22:29:15;9.60;99.90
2008;DHT22;47741;52.306;8.904;2022-11-04T22:32:04;9.30;99.90
2008;DHT22;47741;52.306;8.904;2022-11-04T22:34:55;9.30;99.90
2008;DHT22;47741;52.306;8.904;2022-11-04T22:37:47;9.40;99.90
2008;DHT22;47741;52.306;8.904;2022-11-04T22:40:36;9.40;99.90
2008;DHT22;47741;52.306;8.904;2022-11-04T22:43:28;9.20;99.90
2008;DHT22;47741;52.306;8.904;2022-11-04T22:46:17;9.30;99.90
2008;DHT22;47741;52.306;8.904;2022-11-04T22:49:22;9.30;99.90
2008;DHT22;47741;52.306;8.904;2022-11-04T22:52:12;9.20;99.90
2008;DHT22;47741;52.306;8.904;2022-11-04T22:54:58;9.50;99.90
2008;DHT22;47741;52.306;8.904;2022-11-04T22:57:44;9.10;99.90
2008;DHT22;47741;52.306;8.904;2022-11-04T23:00:38;10.20;99.90
2008;DHT22;47741;52.306;8.904;2022-11-04T23:03:32;9.20;99.90
2008;DHT22;47741;52.306;8.904;2022-11-04T23:06:18;9.10;99.90
2008;DHT22;47741;52.306;8.904;2022-11-04T23:09:13;9.20;99.90
2008;DHT22;47741;52.306;8.904;2022-11-04T23:11:59;8.90;99.90
2008;DHT22;47741;52.306;8.904;2022-11-04T23:15:04;9.10;99.90
2008;DHT22;47741;52.306;8.904;2022-11-04T23:18:10;8.80;99.90
2008;DHT22;47741;52.306;8.904;2022-11-04T23:21:16;8.80;99.90
2008;DHT22;47741;52.306;8.904;2022-11-04T23:24:23;8.90;99.90
2008;DHT22;47741;52.306;8.904;2022-11-04T23:27:27;8.80;99.90
2008;DHT22;47741;52.306;8.904;2022-11-04T23:30:35;8.70;99.90
2008;DHT22;47741;52.306;8.904;2022-11-04T23:33:24;8.80;99.90
2008;DHT22;47741;52.306;8.904;2022-11-04T23:36:29;9.10;99.90
2008;DHT22;47741;52.306;8.904;2022-11-04T23:39:34;9.20;99.90
2008;DHT22;47741;52.306;8.904;2022-11-04T23:42:20;8.80;99.90
2008;DHT22;47741;52.306;8.904;2022-11-04T23:45:07;8.90;99.90
2008;DHT22;47741;52.306;8.904;2022-11-04T23:48:12;9.00;99.90
2008;DHT22;47741;52.306;8.904;2022-11-04T23:51:17;9.50;99.90
2008;DHT22;47741;52.306;8.904;2022-11-04T23:54:21;8.80;99.90
2008;DHT22;47741;52.306;8.904;2022-11-04T23:57:28;8.70;99.90
